White Mountain Summit Weather observations

Data are for 10 minute period ending at time listed.
 Day   Time   Solar   Ave.   Ave.  Ave.  Vector    Max.    Baro.  
  of    of     Rad.   Air    Rel.  Wind   Wind     Wind   Press.  
Year   Day            Temp.  Hum.  Speed  Dir.     Gust           
2016   (PST)   W/m2    F      %     mph   deg.      mph     mb.   
-------------------------------------------------------------------
 268    3:20    0.0    32    6.8    47    303.9    75.3   604.3 
 268    3:30    0.0    32    6.6    44    306.7    65.9   604.4 
 268    3:40    0.0    32    6.0    41    307.9    65.9   604.5 
 268    3:50    0.0    32    5.9    40    307.2    58.8   604.6 
 268    4:00    0.0    31    6.7    44    310.7    63.5   604.5 
 268    4:10    1.0    32    5.7    46    310.8    65.9   604.5 
 268    4:20    1.0    32    5.0    49    306.4    70.6   604.5 
 268    4:30    0.0    32    4.5    48    308.3    68.2   604.5 
 268    4:40    0.0    32    4.3    52    308.5    75.3   604.5 
 268    4:50    0.0    33    3.7    50    303.2    65.9   604.5 
 268    5:00    0.0    32    4.9    45    309.7    63.5   604.7 
 268    5:10    0.0    32    6.1    45    317.0    68.2   604.8 
 268    5:20    0.0    32    5.5    52    315.4    77.7   604.6 
 268    5:30    0.0    33    5.5    53    312.7    75.3   604.6 
 268    5:40    0.0    33    7.6    52    319.3    72.9   604.8 
 268    5:50    0.0    33    7.1    53    313.6    75.3   604.9 
 268    6:00    0.0    33    7.4    53    329.2    70.6   605.1 
 268    6:10    0.0    33    7.4    49    324.8    65.9   605.3 
 268    6:20    0.0    33    7.2    51    326.5    68.2   605.2 
 268    6:30    0.0    33    6.0    54    334.4    68.2   605.2 
 268    6:40    0.0    33    7.5    56    337.5    77.7   605.2 
 268    6:50    0.0    33    7.6    54    335.8    70.6   605.5 
 268    7:00    0.0    33    8.7    55    341.6    70.6   605.6 
 268    7:10    0.0    34    7.8    63      4.3    72.9   605.6 
 268    7:20    0.0    33    6.6    56     14.1    70.6   605.4 
 268    7:30    0.0    33    7.0    55     10.3    63.5   605.1 
 268    7:40    0.0    33    6.6    55     11.9    65.9   605.1 
 268    7:50    0.0    34    8.4    60     11.3    72.9   605.0 
 268    8:00    1.0    34    8.6    61     17.1    70.6   605.6 
 268    8:10    1.0    35    9.4    61     23.1    68.2   605.9 
 268    8:20    0.0    36    9.8    58     22.9    72.9   606.2 
 268    8:30    0.0    36   11.2    58     25.4    65.9   606.3 
 268    8:40    0.0    37   12.1    58     24.7    63.5   606.5 
 268    8:50    0.0    38   11.4    58     27.4    63.5   606.6 
 268    9:00    0.0    38   11.5    56     24.3    63.5   606.6 
 268    9:10    0.0    38   11.0    54     17.4    63.5   606.8 
 268    9:20    0.0    38   10.0    47     10.6    56.5   606.9 
 268    9:30    0.0    38    9.5    46     12.5    58.8   607.0 
 268    9:40    0.0    39    9.3    46      9.7    56.5   607.0 
 268    9:50    0.0    39    8.9    46      9.4    58.8   606.9 
 268   10:00    0.0    39    8.9    48     13.1    61.2   606.9 
 268   10:10    0.0    40    9.0    44     11.6    58.8   607.3 
 268   10:20    0.0    40    9.3    44      9.3    58.8   607.1 
 268   10:30    1.0    40    9.7    46     13.3    56.5   606.9 
 268   10:40    0.0    40    9.4    46     10.7    63.5   606.9 
 268   10:50    0.0    41    9.5    46     15.4    58.8   607.0 
 268   11:00    0.0    41    9.7    46     16.6    56.5   607.0 
 268   11:10    0.0    41    9.2    46     15.8    54.1   607.1 
 268   11:20    0.0    41    8.3    46     18.0    54.1   607.1 
 268   11:30    0.0    42    7.8    47     14.9    56.5   607.1 
 268   11:40    0.0    42    7.7    43     14.6    54.1   607.4 
 268   11:50    0.0    43    7.1    36     12.8    44.7   607.9 
 268   12:00    0.0    43    6.7    36     17.2    44.7   608.1 
 268   12:10    0.0    44    6.7    36     17.0    44.7   608.1 
 268   12:20    0.0    44    6.8    33     14.0    47.1   608.1 
 268   12:30    0.0    44    6.4    33     21.1    42.4   608.2 
 268   12:40    0.0    44    6.7    35     15.4    47.1   608.2 
 268   12:50    0.0    45    6.3    33     17.5    42.4   608.2 
 268   13:00    0.0    44    5.9    29     21.9    40.0   608.4 
 268   13:10    0.0    45    6.6    28     15.6    42.4   608.4 
 268   13:20    0.0    46    6.6    26     16.9    40.0   608.4 
 268   13:30    0.0    46    7.4    28     13.7    42.4   608.4 
 268   13:40    0.0    46    6.8    25     21.1    40.0   608.5 
 268   13:50    0.0    46    6.4    26     27.0    37.7   608.5 
 268   14:00    0.0    46    5.9    22     23.0    40.0   608.6 
 268   14:10    0.0    45    5.5    20     28.9    30.6   608.7 
 268   14:20    0.0    46    5.8    24     22.9    35.3   608.7 
 268   14:30    0.0    46    7.1    25     13.8    42.4   608.7 
 268   14:40    0.0    47    7.0    18      7.0    30.6   608.9 
 268   14:50    0.0    47    7.6    17      4.8    25.9   608.9 
 268   15:00    0.0    47    8.0    20    357.9    33.0   608.9 
 268   15:10    0.0    47    8.4    20    354.7    35.3   608.9 
 268   15:20    0.0    47    7.9    22    352.2    33.0   609.0 
 268   15:30    0.0    47    8.2    22    357.5    35.3   609.0 
 268   15:40    0.0    48    8.9    24    358.8    40.0   609.0 
 268   15:50    0.0    47    8.8    22    346.1    35.3   609.0 
 268   16:00    0.0    47    9.6    23    341.1    35.3   609.0 
 268   16:10    0.0    46    9.6    22    333.9    40.0   609.1 
 268   16:20    0.0    46   10.3    26      2.5    37.7   609.1 
 268   16:30    0.0    46   11.0    25    354.0    37.7   609.1 
 268   16:40    0.0    45   10.8    20    348.9    33.0   609.2 
 268   16:50    0.0    45   11.4    24      1.8    35.3   609.2 
 268   17:00    0.0    44   11.4    26    359.1    35.3   609.2 
 268   17:10    0.0    44   11.6    29      7.3    37.7   609.1 
 268   17:20    0.0    43   12.0    28     12.2    35.3   609.2 
 268   17:30    0.0    42   12.0    26     10.6    33.0   609.2 
 268   17:40    0.0    42   12.8    28     18.3    37.7   609.1 
 268   17:50    0.0    41   13.5    29     20.9    35.3   609.1 
 268   18:00    0.0    40   14.9    29     18.0    37.7   609.1 
 268   18:10    0.0    40   17.6    27     18.3    33.0   609.2 
 268   18:20    0.0    40   20.0    28     20.0    33.0   609.1 
 268   18:30    0.0    39   20.7    25     18.8    33.0   609.2 
 268   18:40    0.0    38   25.8    25     22.4    30.6   609.3 
 268   18:50    0.0    38   26.0    25     29.1    33.0   609.3 
 268   19:00    0.0    37   23.8    28     30.5    33.0   609.3 
 268   19:10    0.0    37   23.2    26     31.1    30.6   609.5 
 268   19:20    0.0    37   24.1    25     31.9    30.6   609.6 
 268   19:30    0.0    36   24.8    22     35.7    28.2   609.7 
 268   19:40    0.0    36   24.2    22     36.0    30.6   609.8 
 268   19:50    0.0    36   29.3    24     34.1    30.6   609.9 
 268   20:00    0.0    36   32.7    23     34.6    28.2   610.0 
 268   20:10    0.0    36   34.2    24     33.8    28.2   609.9 
 268   20:20    0.0    35   28.7    24     37.2    28.2   609.9 
 268   20:30    0.0    35   28.1    28     35.6    33.0   609.9 
 268   20:40    0.0    35   36.4    29     27.8    33.0   609.8 
 268   20:50    0.0    35   39.8    29     31.7    35.3   609.8 
 268   21:00    0.0    35   37.6    35     33.8    37.7   609.6 
 268   21:10    0.0    35   34.4    36     31.8    40.0   609.6 
 268   21:20    1.0    35   46.4    36     25.2    40.0   609.7 
 268   21:30    0.0    35   49.3    36     23.3    40.0   609.8 
 268   21:40    0.0    35   49.3    36     20.4    40.0   609.8 
 268   21:50    0.0    36   50.0    38     20.1    42.4   609.8 
 268   22:00    0.0    36   51.6    33     21.7    40.0   610.0 
 268   22:10    0.0    35   53.2    23     29.4    30.6   610.2 
 268   22:20    0.0    34   53.9    25     31.6    33.0   610.0 
 268   22:30    0.0    34   53.4    29     33.3    37.7   609.9 
 268   22:40    0.0    34   54.0    31     29.8    40.0   609.8 
 268   22:50    0.0    34   53.6    33     35.5    40.0   609.7 
 268   23:00    0.0    34   55.6    36     39.2    40.0   609.6 
 268   23:10    0.0    33   57.5    40     40.7    44.7   609.4 
 268   23:20    0.0    34   58.0    44     43.3    47.1   609.3 
 268   23:30    0.0    34   56.2    40     39.2    44.7   609.4 
 268   23:40    1.0    34   56.3    37     40.4    40.0   609.4 
 268   23:50    0.0    33   55.9    35     41.7    37.7   609.4 
 269    0:00    0.0    33   56.6    35     40.5    40.0   609.5 
 269    0:10    0.0    34   56.0    34     37.5    37.7   609.6 
 269    0:20    0.0    34   57.8    34     42.4    37.7   609.6 
 269    0:30    0.0    33   60.3    33     50.1    35.3   609.5 
 269    0:40    0.0    33   60.5    35     46.5    37.7   609.4 
 269    0:50    0.0    32   61.4    33     42.5    35.3   609.6 
 269    1:00    0.0    33   61.7    32     38.5    35.3   609.7 
 269    1:10    0.0    33   61.1    36     39.9    42.4   609.6 
 269    1:20    0.0    33   56.6    36     41.7    42.4   609.6 
 269    1:30    0.0    33   57.9    35     45.2    40.0   609.6 
 269    1:40    0.0    33   55.8    34     50.7    37.7   609.6 
 269    1:50    0.0    33   55.0    35     53.4    37.7   609.5 
 269    2:00    0.0    34   53.3    35     52.1    37.7   609.6 
 269    2:10    0.0    34   50.5    34     52.3    37.7   609.6 
 269    2:20    0.0    34   50.0    31     55.7    33.0   609.6 
 269    2:30    0.0    33   52.1    32     57.2    33.0   609.5 
 269    2:40    0.0    33   52.4    34     57.0    35.3   609.4 
 269    2:50    0.0    33   55.3    33     54.3    35.3   609.3 
 269    3:00    0.0    33   57.1    30     55.8    33.0   609.5 
 269    3:10    0.0    33   54.9    26     55.5    28.2   609.7 

Return to White Mountain graphs page.


Western Regional Climate Center,wrcc@dri.edu